sensor_id;sensor_type;location;lat;lon;timestamp;pressure;altitude;pressure_sealevel;temperature;humidity
54439;BME280;40347;53.848;27.498;2023-02-18T00:01:20;996;;;4;74.3
54439;BME280;40347;53.848;27.498;2023-02-18T00:06:22;995.9;;;4;74.3
54439;BME280;40347;53.848;27.498;2023-02-18T00:11:26;995.7;;;4.1;74.2
54439;BME280;40347;53.848;27.498;2023-02-18T00:16:20;995.6;;;4.1;74
54439;BME280;40347;53.848;27.498;2023-02-18T00:21:22;995.5;;;4.1;74
54439;BME280;40347;53.848;27.498;2023-02-18T00:26:20;995.4;;;4.2;74.1
54439;BME280;40347;53.848;27.498;2023-02-18T00:31:56;995.2;;;4.2;74.2
54439;BME280;40347;53.848;27.498;2023-02-18T00:36:28;995.1;;;4.3;74.3
54439;BME280;40347;53.848;27.498;2023-02-18T00:41:08;994.9;;;4.4;74
54439;BME280;40347;53.848;27.498;2023-02-18T00:46:08;994.8;;;4.4;73.9
54439;BME280;40347;53.848;27.498;2023-02-18T00:51:08;994.6;;;4.4;74
54439;BME280;40347;53.848;27.498;2023-02-18T00:56:34;994.3;;;4.5;74
54439;BME280;40347;53.848;27.498;2023-02-18T01:01:08;994.2;;;4.6;73.9
54439;BME280;40347;53.848;27.498;2023-02-18T01:06:08;994;;;4.6;73.9
54439;BME280;40347;53.848;27.498;2023-02-18T01:11:22;993.9;;;4.7;73.8
54439;BME280;40347;53.848;27.498;2023-02-18T01:16:08;993.7;;;4.6;73.6
54439;BME280;40347;53.848;27.498;2023-02-18T01:21:36;993.5;;;4.5;73.8
54439;BME280;40347;53.848;27.498;2023-02-18T01:26:26;993.4;;;4.6;74
54439;BME280;40347;53.848;27.498;2023-02-18T01:31:36;993.3;;;4.7;74.2
54439;BME280;40347;53.848;27.498;2023-02-18T01:36:14;993.2;;;4.7;74
54439;BME280;40347;53.848;27.498;2023-02-18T01:41:08;993.1;;;4.7;73.9
54439;BME280;40347;53.848;27.498;2023-02-18T01:46:22;993;;;4.7;74
54439;BME280;40347;53.848;27.498;2023-02-18T01:51:15;993;;;4.6;74
54439;BME280;40347;53.848;27.498;2023-02-18T01:56:23;992.9;;;4.7;74.1
54439;BME280;40347;53.848;27.498;2023-02-18T02:01:28;992.7;;;4.7;74
54439;BME280;40347;53.848;27.498;2023-02-18T02:06:36;992.7;;;4.7;74.1
54439;BME280;40347;53.848;27.498;2023-02-18T02:11:30;992.6;;;4.8;74.3
54439;BME280;40347;53.848;27.498;2023-02-18T02:16:09;992.5;;;4.9;74.4
54439;BME280;40347;53.848;27.498;2023-02-18T02:21:30;992.5;;;4.9;74.2
54439;BME280;40347;53.848;27.498;2023-02-18T02:26:30;992.4;;;4.9;74
54439;BME280;40347;53.848;27.498;2023-02-18T02:31:39;992.3;;;5;74
54439;BME280;40347;53.848;27.498;2023-02-18T02:36:08;992.2;;;4.9;74
54439;BME280;40347;53.848;27.498;2023-02-18T02:41:18;992.2;;;5;74.1
54439;BME280;40347;53.848;27.498;2023-02-18T02:46:42;992.2;;;5.1;74.2
54439;BME280;40347;53.848;27.498;2023-02-18T02:51:22;992.2;;;5.1;74.3
54439;BME280;40347;53.848;27.498;2023-02-18T02:56:22;992.2;;;5.2;74.1
54439;BME280;40347;53.848;27.498;2023-02-18T03:01:26;992.2;;;5.2;74.1
54439;BME280;40347;53.848;27.498;2023-02-18T03:06:20;992.3;;;5.3;74.3
54439;BME280;40347;53.848;27.498;2023-02-18T03:11:09;992.3;;;5.3;74.5
54439;BME280;40347;53.848;27.498;2023-02-18T03:16:24;992.3;;;5.3;74.7
54439;BME280;40347;53.848;27.498;2023-02-18T03:21:21;992.3;;;5.2;74.9
54439;BME280;40347;53.848;27.498;2023-02-18T03:26:36;992.2;;;5.2;74.9
54439;BME280;40347;53.848;27.498;2023-02-18T03:31:09;992.1;;;5.3;74.9
54439;BME280;40347;53.848;27.498;2023-02-18T03:36:08;992.1;;;5.2;75
54439;BME280;40347;53.848;27.498;2023-02-18T03:41:22;992;;;5.3;75
54439;BME280;40347;53.848;27.498;2023-02-18T03:46:08;991.9;;;5.3;74.9
54439;BME280;40347;53.848;27.498;2023-02-18T03:51:22;991.8;;;5.4;74.8
54439;BME280;40347;53.848;27.498;2023-02-18T03:56:14;991.8;;;5.4;74.7
54439;BME280;40347;53.848;27.498;2023-02-18T04:01:36;991.8;;;5.5;74.8
54439;BME280;40347;53.848;27.498;2023-02-18T04:06:08;991.7;;;5.6;74.9
54439;BME280;40347;53.848;27.498;2023-02-18T04:11:08;991.7;;;5.7;74.7
54439;BME280;40347;53.848;27.498;2023-02-18T04:16:08;991.6;;;5.7;74.4
54439;BME280;40347;53.848;27.498;2023-02-18T04:21:20;991.6;;;5.7;74.4
54439;BME280;40347;53.848;27.498;2023-02-18T04:26:08;991.6;;;5.6;74.3
54439;BME280;40347;53.848;27.498;2023-02-18T04:31:08;991.6;;;5.6;74.3
54439;BME280;40347;53.848;27.498;2023-02-18T04:36:08;991.6;;;5.5;74.3
54439;BME280;40347;53.848;27.498;2023-02-18T04:41:08;991.5;;;5.3;74.5
54439;BME280;40347;53.848;27.498;2023-02-18T04:46:14;991.5;;;5.3;74.6
54439;BME280;40347;53.848;27.498;2023-02-18T04:51:36;991.5;;;5.3;75
54439;BME280;40347;53.848;27.498;2023-02-18T04:56:08;991.4;;;5.2;75.3
54439;BME280;40347;53.848;27.498;2023-02-18T05:01:08;991.4;;;5.3;75.2
54439;BME280;40347;53.848;27.498;2023-02-18T05:06:28;991.3;;;5.3;75.1
54439;BME280;40347;53.848;27.498;2023-02-18T05:11:08;991.3;;;5.4;74.9
54439;BME280;40347;53.848;27.498;2023-02-18T05:16:08;991.3;;;5.4;74.7
54439;BME280;40347;53.848;27.498;2023-02-18T05:21:28;991.3;;;5.4;74.6
54439;BME280;40347;53.848;27.498;2023-02-18T05:26:22;991.3;;;5.3;74.4
54439;BME280;40347;53.848;27.498;2023-02-18T05:31:36;991.2;;;5.3;74.5
54439;BME280;40347;53.848;27.498;2023-02-18T05:36:14;991.2;;;5.2;74.7
54439;BME280;40347;53.848;27.498;2023-02-18T05:41:08;991.2;;;5.2;74.7
54439;BME280;40347;53.848;27.498;2023-02-18T05:46:22;991.2;;;5.3;74.6
54439;BME280;40347;53.848;27.498;2023-02-18T05:51:20;991.2;;;5.4;74.4
54439;BME280;40347;53.848;27.498;2023-02-18T05:56:28;991.1;;;5.4;74.1
54439;BME280;40347;53.848;27.498;2023-02-18T06:01:08;991.2;;;5.3;73.9
54439;BME280;40347;53.848;27.498;2023-02-18T06:06:36;991.2;;;5.2;74
54439;BME280;40347;53.848;27.498;2023-02-18T06:11:08;991.1;;;5.2;74.1
54439;BME280;40347;53.848;27.498;2023-02-18T06:16:08;991.2;;;5.3;74.1
54439;BME280;40347;53.848;27.498;2023-02-18T06:21:14;991.1;;;5.3;74.1
54439;BME280;40347;53.848;27.498;2023-02-18T06:26:14;991.1;;;5.4;74.1
54439;BME280;40347;53.848;27.498;2023-02-18T06:31:08;991.1;;;5.5;73.9
54439;BME280;40347;53.848;27.498;2023-02-18T06:36:22;991.1;;;5.7;73.7
54439;BME280;40347;53.848;27.498;2023-02-18T06:41:36;991.1;;;5.9;73.5
54439;BME280;40347;53.848;27.498;2023-02-18T06:46:28;991.2;;;6;72.8
54439;BME280;40347;53.848;27.498;2023-02-18T06:51:58;991.2;;;5.9;72.5
54439;BME280;40347;53.848;27.498;2023-02-18T06:56:08;991.2;;;5.7;72.6
54439;BME280;40347;53.848;27.498;2023-02-18T07:01:08;991.2;;;5.6;72.9
54439;BME280;40347;53.848;27.498;2023-02-18T07:06:48;991.2;;;5.4;73.2
54439;BME280;40347;53.848;27.498;2023-02-18T07:11:08;991.2;;;5.4;73.5
54439;BME280;40347;53.848;27.498;2023-02-18T07:16:40;991.3;;;5.5;73.7
54439;BME280;40347;53.848;27.498;2023-02-18T07:21:08;991.2;;;5.6;73.5
54439;BME280;40347;53.848;27.498;2023-02-18T07:26:14;991.2;;;5.5;73.2
54439;BME280;40347;53.848;27.498;2023-02-18T07:31:22;991.3;;;5.5;73.1
54439;BME280;40347;53.848;27.498;2023-02-18T07:36:08;991.3;;;5.4;73.3
54439;BME280;40347;53.848;27.498;2023-02-18T07:41:15;991.3;;;5.2;73.6
54439;BME280;40347;53.848;27.498;2023-02-18T07:46:22;991.3;;;5.1;73.8
54439;BME280;40347;53.848;27.498;2023-02-18T07:51:22;991.3;;;5.2;73.9
54439;BME280;40347;53.848;27.498;2023-02-18T07:56:08;991.3;;;5.3;73.6
54439;BME280;40347;53.848;27.498;2023-02-18T08:01:08;991.3;;;5.4;73.1
54439;BME280;40347;53.848;27.498;2023-02-18T08:06:12;991.3;;;5.6;72.7
54439;BME280;40347;53.848;27.498;2023-02-18T08:11:36;991.3;;;5.7;72.4
54439;BME280;40347;53.848;27.498;2023-02-18T08:16:28;991.3;;;5.8;72
54439;BME280;40347;53.848;27.498;2023-02-18T08:21:22;991.3;;;6;71.5
54439;BME280;40347;53.848;27.498;2023-02-18T08:26:08;991.3;;;6.1;71.2
54439;BME280;40347;53.848;27.498;2023-02-18T08:31:42;991.3;;;6.2;70.7
54439;BME280;40347;53.848;27.498;2023-02-18T08:36:22;991.3;;;6.3;70.3
54439;BME280;40347;53.848;27.498;2023-02-18T08:41:26;991.3;;;6.4;70.3
54439;BME280;40347;53.848;27.498;2023-02-18T08:46:08;991.3;;;6.5;69.9
54439;BME280;40347;53.848;27.498;2023-02-18T08:51:09;991.2;;;6.6;69.5
54439;BME280;40347;53.848;27.498;2023-02-18T08:56:14;991.3;;;6.7;69.2
54439;BME280;40347;53.848;27.498;2023-02-18T09:01:22;991.3;;;6.6;68.9
54439;BME280;40347;53.848;27.498;2023-02-18T09:06:28;991.4;;;6.5;69
54439;BME280;40347;53.848;27.498;2023-02-18T09:11:34;991.4;;;6.4;69.2
54439;BME280;40347;53.848;27.498;2023-02-18T09:16:10;991.5;;;6.3;69.4
54439;BME280;40347;53.848;27.498;2023-02-18T09:21:40;991.5;;;6.2;69.7
54439;BME280;40347;53.848;27.498;2023-02-18T09:26:09;991.5;;;6.1;69.7
54439;BME280;40347;53.848;27.498;2023-02-18T09:31:28;991.4;;;6;69.8
54439;BME280;40347;53.848;27.498;2023-02-18T09:36:37;991.4;;;6;70
54439;BME280;40347;53.848;27.498;2023-02-18T09:41:25;991.5;;;6;69.9
54439;BME280;40347;53.848;27.498;2023-02-18T09:46:18;991.4;;;5.9;69.7
54439;BME280;40347;53.848;27.498;2023-02-18T09:51:14;991.4;;;6;69.8
54439;BME280;40347;53.848;27.498;2023-02-18T09:56:08;991.4;;;6.1;69.7
54439;BME280;40347;53.848;27.498;2023-02-18T10:01:10;991.4;;;6.2;69.2
54439;BME280;40347;53.848;27.498;2023-02-18T10:06:28;991.4;;;6.1;69.2
54439;BME280;40347;53.848;27.498;2023-02-18T10:11:27;991.3;;;6.1;69.2
54439;BME280;40347;53.848;27.498;2023-02-18T10:16:22;991.4;;;6.1;69.2
54439;BME280;40347;53.848;27.498;2023-02-18T10:21:29;991.3;;;6.2;69.1
54439;BME280;40347;53.848;27.498;2023-02-18T10:26:34;991.3;;;6.4;68.5
54439;BME280;40347;53.848;27.498;2023-02-18T10:31:17;991.2;;;6.6;68.4
54439;BME280;40347;53.848;27.498;2023-02-18T10:36:22;991.2;;;6.7;67.9
54439;BME280;40347;53.848;27.498;2023-02-18T10:41:38;991.2;;;6.7;67.5
54439;BME280;40347;53.848;27.498;2023-02-18T10:46:16;991.2;;;6.6;67.5
54439;BME280;40347;53.848;27.498;2023-02-18T10:51:11;991.3;;;6.7;67.5
54439;BME280;40347;53.848;27.498;2023-02-18T10:56:38;991.3;;;6.8;67.2
54439;BME280;40347;53.848;27.498;2023-02-18T11:01:26;991.4;;;6.9;67.2
54439;BME280;40347;53.848;27.498;2023-02-18T11:06:24;991.4;;;7;66.8
54439;BME280;40347;53.848;27.498;2023-02-18T11:11:15;991.4;;;7.3;66.3
54439;BME280;40347;53.848;27.498;2023-02-18T11:16:08;991.4;;;7.5;65.7
54439;BME280;40347;53.848;27.498;2023-02-18T11:21:29;991.4;;;7.7;65.3
54439;BME280;40347;53.848;27.498;2023-02-18T11:26:10;991.4;;;7.7;64.7
54439;BME280;40347;53.848;27.498;2023-02-18T11:31:22;991.5;;;7.7;64.1
54439;BME280;40347;53.848;27.498;2023-02-18T11:36:16;991.5;;;7.6;64.1
54439;BME280;40347;53.848;27.498;2023-02-18T11:41:36;991.4;;;7.8;64.6
54439;BME280;40347;53.848;27.498;2023-02-18T11:46:28;991.6;;;7.8;63.9
54439;BME280;40347;53.848;27.498;2023-02-18T11:51:12;991.7;;;7.8;63.9
54439;BME280;40347;53.848;27.498;2023-02-18T11:56:22;991.7;;;7.6;63.9
54439;BME280;40347;53.848;27.498;2023-02-18T12:01:27;991.8;;;7.3;63.9
54439;BME280;40347;53.848;27.498;2023-02-18T12:06:35;991.9;;;7.1;64.7
54439;BME280;40347;53.848;27.498;2023-02-18T12:11:23;991.9;;;7.2;64.9
54439;BME280;40347;53.848;27.498;2023-02-18T12:16:16;991.9;;;7.2;64.7
54439;BME280;40347;53.848;27.498;2023-02-18T12:21:11;992;;;7.1;64.9
54439;BME280;40347;53.848;27.498;2023-02-18T12:26:17;992;;;7;65.3
54439;BME280;40347;53.848;27.498;2023-02-18T12:31:37;992.1;;;6.8;65.8
54439;BME280;40347;53.848;27.498;2023-02-18T12:36:31;992.1;;;6.5;66.4
54439;BME280;40347;53.848;27.498;2023-02-18T12:41:12;992.2;;;6.3;67.2
54439;BME280;40347;53.848;27.498;2023-02-18T12:46:25;992.3;;;6.2;67.7
54439;BME280;40347;53.848;27.498;2023-02-18T12:51:11;992.4;;;6.1;68.2
54439;BME280;40347;53.848;27.498;2023-02-18T12:56:13;992.4;;;6.1;68.3
54439;BME280;40347;53.848;27.498;2023-02-18T13:01:31;992.3;;;6.1;68.3
54439;BME280;40347;53.848;27.498;2023-02-18T13:06:12;992.2;;;6;68.1
54439;BME280;40347;53.848;27.498;2023-02-18T13:11:38;992.3;;;6;68
54439;BME280;40347;53.848;27.498;2023-02-18T13:16:26;992.2;;;6;67.8
54439;BME280;40347;53.848;27.498;2023-02-18T13:21:08;992.1;;;6.1;67.4
54439;BME280;40347;53.848;27.498;2023-02-18T13:26:57;992.2;;;6.1;67.1
54439;BME280;40347;53.848;27.498;2023-02-18T13:31:18;992.2;;;6.1;67
54439;BME280;40347;53.848;27.498;2023-02-18T13:36:26;992.2;;;6.1;66.3
54439;BME280;40347;53.848;27.498;2023-02-18T13:41:20;992.3;;;6;66.3
54439;BME280;40347;53.848;27.498;2023-02-18T13:46:08;992.2;;;5.8;65.9
54439;BME280;40347;53.848;27.498;2023-02-18T13:51:08;992.4;;;5.7;65.8
54439;BME280;40347;53.848;27.498;2023-02-18T13:56:26;992.4;;;5.7;65.1
54439;BME280;40347;53.848;27.498;2023-02-18T14:01:24;992.6;;;5.7;65
54439;BME280;40347;53.848;27.498;2023-02-18T14:06:27;992.5;;;5.6;64.8
54439;BME280;40347;53.848;27.498;2023-02-18T14:11:30;992.7;;;5.4;65.2
54439;BME280;40347;53.848;27.498;2023-02-18T14:16:22;992.7;;;5.4;65.3
54439;BME280;40347;53.848;27.498;2023-02-18T14:21:40;992.8;;;5.3;66
54439;BME280;40347;53.848;27.498;2023-02-18T14:26:08;992.8;;;5.2;65.5
54439;BME280;40347;53.848;27.498;2023-02-18T14:31:28;992.9;;;5.2;65.1
54439;BME280;40347;53.848;27.498;2023-02-18T14:36:41;992.9;;;5.2;64.7
54439;BME280;40347;53.848;27.498;2023-02-18T14:41:38;993;;;5.3;64.3
54439;BME280;40347;53.848;27.498;2023-02-18T14:46:09;993;;;5.3;63.8
54439;BME280;40347;53.848;27.498;2023-02-18T14:51:08;993;;;5.3;63.9
54439;BME280;40347;53.848;27.498;2023-02-18T14:56:16;993;;;5.3;64.2
54439;BME280;40347;53.848;27.498;2023-02-18T15:01:20;992.9;;;5.1;64.3
54439;BME280;40347;53.848;27.498;2023-02-18T15:06:29;993;;;5;64.5
54439;BME280;40347;53.848;27.498;2023-02-18T15:11:08;992.9;;;4.9;64.5
54439;BME280;40347;53.848;27.498;2023-02-18T15:16:08;993;;;4.8;64.8
54439;BME280;40347;53.848;27.498;2023-02-18T15:21:15;993.1;;;4.8;64.9
54439;BME280;40347;53.848;27.498;2023-02-18T15:26:34;993.2;;;4.8;64.9
54439;BME280;40347;53.848;27.498;2023-02-18T15:31:23;993.1;;;4.8;64.9
54439;BME280;40347;53.848;27.498;2023-02-18T15:36:08;993.2;;;4.7;65
54439;BME280;40347;53.848;27.498;2023-02-18T15:41:09;993.1;;;4.8;64.9
54439;BME280;40347;53.848;27.498;2023-02-18T15:46:09;993.3;;;4.8;64.9
54439;BME280;40347;53.848;27.498;2023-02-18T15:51:34;993.4;;;4.7;64.9
54439;BME280;40347;53.848;27.498;2023-02-18T15:56:15;993.4;;;4.7;65.1
54439;BME280;40347;53.848;27.498;2023-02-18T16:01:56;993.4;;;4.6;65.5
54439;BME280;40347;53.848;27.498;2023-02-18T16:06:09;993.5;;;4.6;65.9
54439;BME280;40347;53.848;27.498;2023-02-18T16:11:40;993.6;;;4.6;66
54439;BME280;40347;53.848;27.498;2023-02-18T16:16:17;993.7;;;4.7;65.9
54439;BME280;40347;53.848;27.498;2023-02-18T16:21:23;993.7;;;4.7;65.9
54439;BME280;40347;53.848;27.498;2023-02-18T16:26:10;993.8;;;4.6;66.2
54439;BME280;40347;53.848;27.498;2023-02-18T16:31:36;993.9;;;4.7;66.3
54439;BME280;40347;53.848;27.498;2023-02-18T16:36:14;994;;;4.7;66.4
54439;BME280;40347;53.848;27.498;2023-02-18T16:41:22;994;;;4.7;66.4
54439;BME280;40347;53.848;27.498;2023-02-18T16:46:08;994;;;4.7;66.2
54439;BME280;40347;53.848;27.498;2023-02-18T16:51:23;994.1;;;4.8;65.8
54439;BME280;40347;53.848;27.498;2023-02-18T16:56:36;994.1;;;4.8;65.5
54439;BME280;40347;53.848;27.498;2023-02-18T17:01:17;994.2;;;4.7;65.5
54439;BME280;40347;53.848;27.498;2023-02-18T17:06:20;994.2;;;4.7;65.5
54439;BME280;40347;53.848;27.498;2023-02-18T17:11:08;994.3;;;4.8;65.2
54439;BME280;40347;53.848;27.498;2023-02-18T17:16:08;994.3;;;4.9;64.9
54439;BME280;40347;53.848;27.498;2023-02-18T17:21:08;994.3;;;4.9;64.6
54439;BME280;40347;53.848;27.498;2023-02-18T17:26:09;994.4;;;4.9;64.4
54439;BME280;40347;53.848;27.498;2023-02-18T17:31:23;994.3;;;4.9;64.1
54439;BME280;40347;53.848;27.498;2023-02-18T17:36:22;994.3;;;4.9;63.6
54439;BME280;40347;53.848;27.498;2023-02-18T17:41:08;994.3;;;5;63.2
54439;BME280;40347;53.848;27.498;2023-02-18T17:46:36;994.3;;;5;62.4
54439;BME280;40347;53.848;27.498;2023-02-18T17:51:09;994.3;;;5;62.4
54439;BME280;40347;53.848;27.498;2023-02-18T17:56:34;994.4;;;4.9;61.6
54439;BME280;40347;53.848;27.498;2023-02-18T18:01:08;994.4;;;4.9;60.7
54439;BME280;40347;53.848;27.498;2023-02-18T18:06:10;994.4;;;4.9;60.5
54439;BME280;40347;53.848;27.498;2023-02-18T18:11:22;994.4;;;4.8;59.3
54439;BME280;40347;53.848;27.498;2023-02-18T18:16:08;994.5;;;4.8;59.6
54439;BME280;40347;53.848;27.498;2023-02-18T18:21:16;994.4;;;4.8;59.2
54439;BME280;40347;53.848;27.498;2023-02-18T18:26:22;994.5;;;4.8;59.4
54439;BME280;40347;53.848;27.498;2023-02-18T18:31:08;994.6;;;4.7;59.5
54439;BME280;40347;53.848;27.498;2023-02-18T18:36:08;994.5;;;4.7;60.1
54439;BME280;40347;53.848;27.498;2023-02-18T18:41:08;994.5;;;4.7;60.5
54439;BME280;40347;53.848;27.498;2023-02-18T18:46:22;994.6;;;4.7;60.8
54439;BME280;40347;53.848;27.498;2023-02-18T18:51:20;994.6;;;4.6;60.9
54439;BME280;40347;53.848;27.498;2023-02-18T18:56:22;994.6;;;4.5;60.8
54439;BME280;40347;53.848;27.498;2023-02-18T19:01:12;994.6;;;4.5;60.6
54439;BME280;40347;53.848;27.498;2023-02-18T19:06:08;994.7;;;4.6;60.4
54439;BME280;40347;53.848;27.498;2023-02-18T19:11:28;994.8;;;4.6;59.8
54439;BME280;40347;53.848;27.498;2023-02-18T19:16:28;994.9;;;4.5;60.3
54439;BME280;40347;53.848;27.498;2023-02-18T19:21:22;994.9;;;4.5;62.4
54439;BME280;40347;53.848;27.498;2023-02-18T19:26:08;994.9;;;4.3;63
54439;BME280;40347;53.848;27.498;2023-02-18T19:31:14;995;;;4.2;62.7
54439;BME280;40347;53.848;27.498;2023-02-18T19:36:08;994.9;;;4.3;62.4
54439;BME280;40347;53.848;27.498;2023-02-18T19:41:08;995;;;4.4;61.4
54439;BME280;40347;53.848;27.498;2023-02-18T19:46:34;994.9;;;4.3;60.8
54439;BME280;40347;53.848;27.498;2023-02-18T19:51:28;995;;;4.3;60.3
54439;BME280;40347;53.848;27.498;2023-02-18T19:56:08;995;;;4.3;60.1
54439;BME280;40347;53.848;27.498;2023-02-18T20:01:28;995;;;4.3;60
54439;BME280;40347;53.848;27.498;2023-02-18T20:06:12;995;;;4.3;59.7
54439;BME280;40347;53.848;27.498;2023-02-18T20:11:08;995;;;4.3;59.7
54439;BME280;40347;53.848;27.498;2023-02-18T20:16:30;995;;;4.3;59.5
54439;BME280;40347;53.848;27.498;2023-02-18T20:21:08;995.1;;;4.2;59.3
54439;BME280;40347;53.848;27.498;2023-02-18T20:26:30;995.2;;;4.3;59.8
54439;BME280;40347;53.848;27.498;2023-02-18T20:31:22;995.2;;;4.4;59.9
54439;BME280;40347;53.848;27.498;2023-02-18T20:36:20;995.3;;;4.3;61
54439;BME280;40347;53.848;27.498;2023-02-18T20:41:08;995.3;;;4.2;63.3
54439;BME280;40347;53.848;27.498;2023-02-18T20:46:28;995.4;;;3.9;65.8
54439;BME280;40347;53.848;27.498;2023-02-18T20:51:28;995.3;;;3.6;64.8
54439;BME280;40347;53.848;27.498;2023-02-18T20:56:22;995.3;;;3.6;64.7
54439;BME280;40347;53.848;27.498;2023-02-18T21:01:09;995.3;;;3.6;63.3
54439;BME280;40347;53.848;27.498;2023-02-18T21:06:22;995.2;;;3.7;62.6
54439;BME280;40347;53.848;27.498;2023-02-18T21:11:17;995.3;;;3.6;62.4
54439;BME280;40347;53.848;27.498;2023-02-18T21:16:30;995.3;;;3.6;62.5
54439;BME280;40347;53.848;27.498;2023-02-18T21:21:16;995.3;;;3.7;62.3
54439;BME280;40347;53.848;27.498;2023-02-18T21:26:09;995.3;;;3.7;62.2
54439;BME280;40347;53.848;27.498;2023-02-18T21:31:14;995.4;;;3.6;62.2
54439;BME280;40347;53.848;27.498;2023-02-18T21:36:08;995.5;;;3.6;62.3
54439;BME280;40347;53.848;27.498;2023-02-18T21:41:22;995.4;;;3.5;62.5
54439;BME280;40347;53.848;27.498;2023-02-18T21:46:26;995.5;;;3.4;62.8
54439;BME280;40347;53.848;27.498;2023-02-18T21:51:20;995.6;;;3.4;62.8
54439;BME280;40347;53.848;27.498;2023-02-18T21:56:30;995.5;;;3.5;62.7
54439;BME280;40347;53.848;27.498;2023-02-18T22:01:08;995.6;;;3.5;62.7
54439;BME280;40347;53.848;27.498;2023-02-18T22:06:08;995.7;;;3.5;62.6
54439;BME280;40347;53.848;27.498;2023-02-18T22:11:08;995.7;;;3.5;62.6
54439;BME280;40347;53.848;27.498;2023-02-18T22:16:08;995.8;;;3.5;62.7
54439;BME280;40347;53.848;27.498;2023-02-18T22:21:22;995.8;;;3.6;62.6
54439;BME280;40347;53.848;27.498;2023-02-18T22:26:08;995.8;;;3.6;62.3
54439;BME280;40347;53.848;27.498;2023-02-18T22:31:14;995.9;;;3.6;62.2
54439;BME280;40347;53.848;27.498;2023-02-18T22:36:34;995.9;;;3.6;62.2
54439;BME280;40347;53.848;27.498;2023-02-18T22:41:09;995.9;;;3.7;62
54439;BME280;40347;53.848;27.498;2023-02-18T22:46:22;995.9;;;3.6;62.1
54439;BME280;40347;53.848;27.498;2023-02-18T22:51:08;996;;;3.6;62.2
54439;BME280;40347;53.848;27.498;2023-02-18T22:56:08;996;;;3.8;62
54439;BME280;40347;53.848;27.498;2023-02-18T23:01:40;996;;;3.7;62
54439;BME280;40347;53.848;27.498;2023-02-18T23:06:08;996.1;;;3.7;61.9
54439;BME280;40347;53.848;27.498;2023-02-18T23:11:34;996;;;3.7;61.9
54439;BME280;40347;53.848;27.498;2023-02-18T23:16:09;996;;;3.7;62
54439;BME280;40347;53.848;27.498;2023-02-18T23:21:14;996.1;;;3.8;61.9
54439;BME280;40347;53.848;27.498;2023-02-18T23:26:34;996;;;3.7;61.9
54439;BME280;40347;53.848;27.498;2023-02-18T23:31:22;996.1;;;3.6;62.1
54439;BME280;40347;53.848;27.498;2023-02-18T23:36:34;996.2;;;3.6;62.2
54439;BME280;40347;53.848;27.498;2023-02-18T23:41:22;996.2;;;3.7;62.4
54439;BME280;40347;53.848;27.498;2023-02-18T23:46:22;996.2;;;3.8;62.3
54439;BME280;40347;53.848;27.498;2023-02-18T23:51:08;996.3;;;3.8;62.3
54439;BME280;40347;53.848;27.498;2023-02-18T23:56:10;996.4;;;3.6;62.4
